Time;durP1;ratioP1;P1;durP2;ratioP2;P2;SDS_P1;SDS_P2;PMS_P1;PMS_P2;Temp;Humidity;BMP_temperature;BMP_pressure;BME280_temperature;BME280_humidity;BME280_pressure;Samples;Min_cycle;Max_cycle;Signal;HPM_P1;HPM_P2
2019/04/28 00:02:00;;;;;;;2.2;1.2;;;;;;;9.12;63.10352;963.548;;;;
2019/04/28 00:04:25;;;;;;;3.9;1.1;;;;;;;9.27;62.87891;963.5148;;;;
2019/04/28 00:06:50;;;;;;;2.1;1;;;;;;;9.24;62.81641;963.546;;;;
2019/04/28 00:09:17;;;;;;;3.1;1.1;;;;;;;9.26;62.76074;963.5472;;;;
2019/04/28 00:11:42;;;;;;;2.6;1;;;;;;;9.25;62.43164;963.4967;;;;
2019/04/28 00:14:07;;;;;;;2.9;1.1;;;;;;;9.21;62.37891;963.5433;;;;
2019/04/28 00:16:32;;;;;;;2.8;1;;;;;;;9.27;62.71484;963.5109;;;;
2019/04/28 00:18:57;;;;;;;4;1.3;;;;;;;9.09;62.90039;963.5012;;;;
2019/04/28 00:21:31;;;;;;;3.7;1.3;;;;;;;9.17;62.89941;963.4496;;;;
2019/04/28 00:24:15;;;;;;;2.5;1.1;;;;;;;9.29;62.37891;963.3176;;;;
2019/04/28 00:26:24;;;;;;;2.3;1.1;;;;;;;9.28;62.39063;963.2709;;;;
2019/04/28 00:28:40;;;;;;;2.3;0.9;;;;;;;9.26;62.27051;963.3862;;;;
2019/04/28 00:31:05;;;;;;;2.6;0.9;;;;;;;8.89;63.53516;963.3532;;;;
2019/04/28 00:33:30;;;;;;;2.6;1.2;;;;;;;9.1;62.92383;963.3492;;;;
2019/04/28 00:35:55;;;;;;;3.2;1.2;;;;;;;9.1;63.18164;963.3882;;;;
2019/04/28 00:38:20;;;;;;;3.1;1.2;;;;;;;9.15;62.6748;963.3572;;;;
2019/04/28 00:40:45;;;;;;;2.5;1.2;;;;;;;9.01;63.50684;963.3942;;;;
2019/04/28 00:43:10;;;;;;;3.5;1.2;;;;;;;8.94;63.62402;963.3886;;;;
2019/04/28 00:45:37;;;;;;;2.2;1.1;;;;;;;8.69;64.21777;963.3947;;;;
2019/04/28 00:48:02;;;;;;;3.1;1.4;;;;;;;8.07;66.49121;963.5558;;;;
2019/04/28 00:50:28;;;;;;;2.8;1.5;;;;;;;7.87;67.71973;963.5059;;;;
2019/04/28 00:52:53;;;;;;;3.9;1.5;;;;;;;7.73;68.30273;963.5111;;;;
2019/04/28 00:55:18;;;;;;;2.5;1.3;;;;;;;7.83;68.23633;963.4951;;;;
2019/04/28 00:57:43;;;;;;;3.4;1.6;;;;;;;8.01;67.78711;963.4747;;;;
2019/04/28 01:00:08;;;;;;;3.5;1.7;;;;;;;8.05;67.88672;963.4777;;;;
2019/04/28 01:02:41;;;;;;;2.9;1.3;;;;;;;7.86;69.06738;963.6417;;;;
2019/04/28 01:04:58;;;;;;;2.2;1.6;;;;;;;7.89;68.89746;963.6163;;;;
2019/04/28 01:07:25;;;;;;;2.9;1.4;;;;;;;7.75;70.09863;963.5292;;;;
2019/04/28 01:09:50;;;;;;;2.8;1.4;;;;;;;8.04;68.76953;963.4583;;;;
2019/04/28 01:12:16;;;;;;;3.3;1.4;;;;;;;8.03;69.0127;963.5722;;;;
2019/04/28 01:14:41;;;;;;;3.9;1.4;;;;;;;8.22;68.51953;963.5972;;;;
2019/04/28 01:17:11;;;;;;;2.9;1.5;;;;;;;7.99;69.91699;963.6678;;;;
2019/04/28 01:19:33;;;;;;;3.7;1.3;;;;;;;7.88;70.53906;963.6512;;;;
2019/04/28 01:22:12;;;;;;;2.4;1.4;;;;;;;7.96;70.12109;963.6948;;;;
2019/04/28 01:24:22;;;;;;;3.9;1.7;;;;;;;8.06;69.71582;963.632;;;;
2019/04/28 01:26:51;;;;;;;2.8;1.8;;;;;;;7.86;70.86133;963.7115;;;;
2019/04/28 01:29:14;;;;;;;3.1;1.5;;;;;;;7.9;71.34473;963.6965;;;;
2019/04/28 01:31:46;;;;;;;3.8;1.6;;;;;;;7.98;70.98535;963.731;;;;
2019/04/28 01:36:29;;;;;;;4.4;1.9;;;;;;;8.29;69.44043;963.702;;;;
2019/04/28 01:38:54;;;;;;;3.6;1.8;;;;;;;8.2;69.86914;963.7202;;;;
2019/04/28 01:41:20;;;;;;;3.2;1.8;;;;;;;8.08;70.61816;963.6933;;;;
2019/04/28 01:43:45;;;;;;;4;2;;;;;;;8.21;70.3252;963.767;;;;
2019/04/28 01:46:11;;;;;;;3.7;2;;;;;;;8.18;70.50586;963.8198;;;;
2019/04/28 01:48:36;;;;;;;3.4;2;;;;;;;7.9;71.36914;963.808;;;;
2019/04/28 01:51:01;;;;;;;4.7;2.1;;;;;;;7.81;72.16895;963.8448;;;;
2019/04/28 01:53:26;;;;;;;3.6;2.2;;;;;;;7.84;72.39453;963.8619;;;;
2019/04/28 01:55:51;;;;;;;4.8;1.8;;;;;;;7.78;72.02441;963.8961;;;;
2019/04/28 01:58:16;;;;;;;3.4;1.8;;;;;;;7.77;72.12793;963.9066;;;;
2019/04/28 02:00:41;;;;;;;2.8;1.9;;;;;;;7.87;71.43359;963.8907;;;;
2019/04/28 02:03:06;;;;;;;3.8;2.3;;;;;;;7.77;72.2207;963.834;;;;
2019/04/28 02:05:32;;;;;;;3.6;2;;;;;;;7.54;72.58789;963.7847;;;;
2019/04/28 02:07:57;;;;;;;2.6;1.9;;;;;;;7.56;72.95313;963.8276;;;;
2019/04/28 02:10:24;;;;;;;4.5;1.9;;;;;;;7.8;72.12207;963.824;;;;
2019/04/28 02:12:49;;;;;;;3.7;2;;;;;;;7.84;71.74316;963.8867;;;;
2019/04/28 02:15:14;;;;;;;3.2;1.7;;;;;;;7.98;71.22949;963.9164;;;;
2019/04/28 02:17:39;;;;;;;3.4;1.8;;;;;;;7.99;71.16406;963.9919;;;;
2019/04/28 02:20:04;;;;;;;3.6;1.9;;;;;;;7.83;71.68359;963.9836;;;;
2019/04/28 02:22:33;;;;;;;3.4;2;;;;;;;7.64;72.22168;963.9919;;;;
2019/04/28 02:24:55;;;;;;;2.3;1.6;;;;;;;7.51;72.67871;963.9475;;;;
2019/04/28 02:27:20;;;;;;;5.2;1.8;;;;;;;7.65;71.95605;964.0126;;;;
2019/04/28 02:29:45;;;;;;;2.8;1.7;;;;;;;7.93;70.63965;963.9975;;;;
2019/04/28 02:32:11;;;;;;;3.7;1.9;;;;;;;7.76;71.36914;963.9816;;;;
2019/04/28 02:34:35;;;;;;;3.4;1.8;;;;;;;7.73;71.51465;963.9995;;;;
2019/04/28 02:37:00;;;;;;;2.8;1.7;;;;;;;7.68;71.82031;964.0298;;;;
2019/04/28 02:39:25;;;;;;;3.1;1.8;;;;;;;7.66;71.37695;963.9846;;;;
2019/04/28 02:41:51;;;;;;;3.4;1.8;;;;;;;7.64;71.19727;964.0656;;;;
2019/04/28 02:44:16;;;;;;;2.8;1.6;;;;;;;7.73;70.32715;964.0693;;;;
2019/04/28 02:46:41;;;;;;;3.2;1.9;;;;;;;7.45;71.16504;964.062;;;;
2019/04/28 02:49:09;;;;;;;1.7;1.3;;;;;;;7.45;71.22363;964.1526;;;;
2019/04/28 02:51:35;;;;;;;2.4;1.4;;;;;;;7.31;70.99121;964.1186;;;;
2019/04/28 02:53:57;;;;;;;2.8;1.5;;;;;;;7.27;71.14746;964.0817;;;;
2019/04/28 02:56:26;;;;;;;3.3;1.6;;;;;;;7.12;71.95996;964.002;;;;
2019/04/28 02:58:52;;;;;;;2.4;1.4;;;;;;;7.19;71.27441;963.9991;;;;
2019/04/28 03:01:17;;;;;;;5.9;1.8;;;;;;;7.09;71.41992;964.1053;;;;
2019/04/28 03:03:42;;;;;;;2.7;1.4;;;;;;;7.05;71.90234;964.0725;;;;
2019/04/28 03:06:07;;;;;;;4.5;1.8;;;;;;;6.99;71.7998;964.0598;;;;
2019/04/28 03:08:32;;;;;;;3.1;1.4;;;;;;;7.13;71.13477;964.0695;;;;
2019/04/28 03:10:57;;;;;;;4.3;1.7;;;;;;;7.11;70.59668;964.1287;;;;
2019/04/28 03:13:22;;;;;;;4.4;1.5;;;;;;;7.12;70.58789;964.1872;;;;
2019/04/28 03:15:47;;;;;;;4;1.5;;;;;;;7.19;70.43848;964.24;;;;
2019/04/28 03:18:12;;;;;;;4.7;1.7;;;;;;;7.17;70.37598;964.2088;;;;
2019/04/28 03:20:37;;;;;;;6;1.8;;;;;;;7.22;70.29004;964.305;;;;
2019/04/28 03:23:03;;;;;;;4.5;1.6;;;;;;;7.26;69.87695;964.2601;;;;
2019/04/28 03:28:38;;;;;;;5.5;1.6;;;;;;;7.1;70.5625;964.2502;;;;
2019/04/28 03:32:46;;;;;;;4;1.4;;;;;;;7.01;70.17578;964.2208;;;;
2019/04/28 03:35:08;;;;;;;4.8;1.7;;;;;;;6.86;71.82324;964.2455;;;;
2019/04/28 03:37:33;;;;;;;3.9;1.6;;;;;;;6.9;71.54004;964.2903;;;;
2019/04/28 03:39:59;;;;;;;4.6;1.4;;;;;;;7.14;70.33691;964.1835;;;;
2019/04/28 03:42:24;;;;;;;4.1;1.5;;;;;;;7.08;70.33789;964.1544;;;;
2019/04/28 03:44:49;;;;;;;4.5;1.8;;;;;;;7.21;69.76563;964.2467;;;;
2019/04/28 03:47:14;;;;;;;4.4;2;;;;;;;7.33;69.44824;964.1756;;;;
2019/04/28 03:49:39;;;;;;;7.8;2.3;;;;;;;7.18;68.87695;964.1297;;;;
2019/04/28 03:52:04;;;;;;;5.3;1.9;;;;;;;7.15;69.88477;964.1255;;;;
2019/04/28 03:54:29;;;;;;;4.4;1.9;;;;;;;7.24;69.66504;964.1643;;;;
2019/04/28 03:56:54;;;;;;;6.3;1.9;;;;;;;7.23;69.60547;964.1305;;;;
2019/04/28 03:59:20;;;;;;;4.7;1.8;;;;;;;7.34;69.27539;964.1785;;;;
2019/04/28 04:02:26;;;;;;;5.3;2;;;;;;;7.53;68.58301;964.1096;;;;
2019/04/28 04:04:52;;;;;;;7.7;1.9;;;;;;;7.6;68.77051;964.0936;;;;
2019/04/28 04:07:17;;;;;;;7.1;1.9;;;;;;;7.5;68.56738;964.0497;;;;
2019/04/28 04:10:07;;;;;;;6.6;2.3;;;;;;;7.5;69.30078;964.0447;;;;
2019/04/28 04:12:27;;;;;;;5.5;2.1;;;;;;;7.55;68.91309;964.0322;;;;
2019/04/28 04:14:45;;;;;;;5.1;2.2;;;;;;;7.47;69.21484;964.0276;;;;
2019/04/28 04:17:13;;;;;;;6.2;2.1;;;;;;;7.52;69.04883;963.9334;;;;
2019/04/28 04:19:25;;;;;;;5.8;2.2;;;;;;;7.55;69.12305;963.9155;;;;
2019/04/28 04:21:51;;;;;;;5.5;2.2;;;;;;;7.56;68.77539;963.9235;;;;
2019/04/28 04:24:20;;;;;;;5.8;2;;;;;;;7.6;69.00195;963.8008;;;;
2019/04/28 04:26:45;;;;;;;5.2;2;;;;;;;7.8;68.71973;963.8898;;;;
2019/04/28 04:29:11;;;;;;;6.9;2.3;;;;;;;7.93;67.9502;963.8589;;;;
2019/04/28 04:31:36;;;;;;;4.9;2.1;;;;;;;8.03;68.20898;963.8483;;;;
2019/04/28 04:34:01;;;;;;;6.8;2.3;;;;;;;8.14;68.17871;963.7831;;;;
2019/04/28 04:36:26;;;;;;;6.4;2;;;;;;;8.21;67.90039;963.767;;;;
2019/04/28 04:38:51;;;;;;;6.7;2.5;;;;;;;8.27;67.4082;963.709;;;;
2019/04/28 04:41:16;;;;;;;6.3;2.1;;;;;;;8.31;67.18066;963.7123;;;;
2019/04/28 04:43:41;;;;;;;4.6;2.2;;;;;;;8.32;66.75195;963.7449;;;;
2019/04/28 04:46:18;;;;;;;6.5;2.1;;;;;;;8.3;67.0166;963.6917;;;;
2019/04/28 04:48:31;;;;;;;6.3;2.3;;;;;;;8.27;67.53516;963.6716;;;;
2019/04/28 04:50:56;;;;;;;5.7;2.2;;;;;;;8.14;67.85254;963.7742;;;;
2019/04/28 04:53:22;;;;;;;4.8;2.2;;;;;;;7.9;67.61816;963.9286;;;;
2019/04/28 04:55:47;;;;;;;6.9;2.4;;;;;;;7.9;68.56055;963.843;;;;
2019/04/28 04:58:12;;;;;;;4.6;2;;;;;;;7.84;68.13281;963.8697;;;;
2019/04/28 05:01:05;;;;;;;6.1;2.2;;;;;;;8.02;68.10254;963.9841;;;;
2019/04/28 05:03:07;;;;;;;5.8;2.3;;;;;;;7.97;67.37305;963.9474;;;;
2019/04/28 05:05:36;;;;;;;5.8;2.2;;;;;;;8.04;68.01172;963.9508;;;;
2019/04/28 05:07:52;;;;;;;6.4;2.3;;;;;;;8.17;68.06836;963.9377;;;;
2019/04/28 05:10:18;;;;;;;4.9;2;;;;;;;8.27;68.1416;963.8013;;;;
2019/04/28 05:12:43;;;;;;;6.6;2.2;;;;;;;8.28;67.16504;963.8027;;;;
2019/04/28 05:15:08;;;;;;;7.8;2.2;;;;;;;8.29;67.15527;963.7798;;;;
2019/04/28 05:17:34;;;;;;;6.4;2.2;;;;;;;8.23;67.4248;963.7336;;;;
2019/04/28 05:19:59;;;;;;;7.6;2.3;;;;;;;8.16;67.76367;963.6976;;;;
2019/04/28 05:22:26;;;;;;;6.4;2;;;;;;;8.12;68.03613;963.7261;;;;
2019/04/28 05:24:56;;;;;;;6.2;2.2;;;;;;;7.93;68.46191;963.7178;;;;
2019/04/28 05:27:16;;;;;;;7.9;2.3;;;;;;;7.97;68.36328;963.7804;;;;
2019/04/28 05:29:42;;;;;;;5.3;2.3;;;;;;;7.97;68.72461;963.7545;;;;
2019/04/28 05:32:07;;;;;;;5.2;2.3;;;;;;;7.8;68.57031;963.7034;;;;
2019/04/28 05:34:32;;;;;;;7.3;2.3;;;;;;;7.66;69.56055;963.7512;;;;
2019/04/28 05:38:26;;;;;;;4.8;2.1;;;;;;;7.79;69.12598;963.7136;;;;
2019/04/28 05:40:51;;;;;;;4.6;2;;;;;;;7.45;69.74707;963.7241;;;;
2019/04/28 05:43:16;;;;;;;5.9;2.2;;;;;;;7.41;70.34473;963.7482;;;;
2019/04/28 05:45:41;;;;;;;6.6;2.3;;;;;;;7.48;70.56445;963.7333;;;;
2019/04/28 05:48:07;;;;;;;7.6;2.3;;;;;;;7.61;70.7041;963.7766;;;;
2019/04/28 05:50:48;;;;;;;6.6;2.2;;;;;;;7.84;69.75;963.7751;;;;
2019/04/28 05:55:26;;;;;;;5.8;2.1;;;;;;;8.23;69.52344;963.7502;;;;
2019/04/28 05:57:56;;;;;;;4.6;2;;;;;;;8.4;68.63086;963.7184;;;;
2019/04/28 06:02:40;;;;;;;7.8;2.2;;;;;;;8.25;67.68457;963.7388;;;;
2019/04/28 06:05:03;;;;;;;5.5;2;;;;;;;8.28;67.86426;963.7637;;;;
2019/04/28 06:07:39;;;;;;;6.9;2.2;;;;;;;8.03;68.39551;963.8184;;;;
2019/04/28 06:09:55;;;;;;;6.4;2.3;;;;;;;8.04;69.50391;963.7992;;;;
2019/04/28 06:12:21;;;;;;;8.3;2.1;;;;;;;8.13;68.67871;963.7675;;;;
2019/04/28 06:14:46;;;;;;;5.6;2.1;;;;;;;8.4;67.75391;963.8103;;;;
2019/04/28 06:17:11;;;;;;;5.4;1.9;;;;;;;8.54;67.59082;963.7908;;;;
2019/04/28 06:19:38;;;;;;;6.5;2.1;;;;;;;8.34;67.7793;963.7814;;;;
2019/04/28 06:22:03;;;;;;;5.5;2;;;;;;;8.45;67.70605;963.8745;;;;
2019/04/28 06:24:28;;;;;;;5.4;1.9;;;;;;;8.4;66.71777;963.8183;;;;
2019/04/28 06:26:53;;;;;;;7.5;2.1;;;;;;;8.51;68.08691;963.8697;;;;
2019/04/28 06:29:18;;;;;;;6.2;1.9;;;;;;;8.65;66.32422;963.933;;;;
2019/04/28 06:31:45;;;;;;;4.9;1.9;;;;;;;8.78;66.7168;963.9171;;;;
2019/04/28 06:34:10;;;;;;;7.9;2.1;;;;;;;9.04;65.52148;963.9422;;;;
2019/04/28 06:36:35;;;;;;;8.8;2.3;;;;;;;8.87;68.03906;963.9231;;;;
2019/04/28 06:39:02;;;;;;;7.6;1.8;;;;;;;9.13;66.66602;963.9805;;;;
2019/04/28 06:41:26;;;;;;;5.7;1.8;;;;;;;9.42;66.15137;963.9222;;;;
2019/04/28 06:43:51;;;;;;;5.7;1.7;;;;;;;9.49;64.83984;963.9199;;;;
2019/04/28 06:46:16;;;;;;;8.7;2.1;;;;;;;9.31;63.94922;963.9061;;;;
2019/04/28 06:48:42;;;;;;;5.8;1.8;;;;;;;9.38;62.52148;963.8856;;;;
2019/04/28 06:51:07;;;;;;;5;1.8;;;;;;;9.47;62.91992;963.9706;;;;
2019/04/28 06:53:32;;;;;;;6.2;1.8;;;;;;;9.7;62.60352;963.8155;;;;
2019/04/28 06:55:59;;;;;;;5.5;1.8;;;;;;;9.78;62.73145;963.8753;;;;
2019/04/28 06:58:24;;;;;;;4.4;1.6;;;;;;;9.91;60.92383;963.8497;;;;
2019/04/28 07:00:49;;;;;;;4;1.7;;;;;;;9.81;61.4375;963.8925;;;;
2019/04/28 07:03:14;;;;;;;5.5;2;;;;;;;9.93;61.51172;963.9332;;;;
2019/04/28 07:05:39;;;;;;;4.5;1.8;;;;;;;9.89;60.60547;964.0085;;;;
2019/04/28 07:08:04;;;;;;;7.8;2.1;;;;;;;9.62;62.00586;963.9842;;;;
2019/04/28 07:10:29;;;;;;;4.9;1.9;;;;;;;9.79;61.0957;963.882;;;;
2019/04/28 07:12:57;;;;;;;5.9;1.7;;;;;;;9.91;60.15332;963.8745;;;;
2019/04/28 07:15:22;;;;;;;5.6;1.8;;;;;;;10.02;59.95605;963.9007;;;;
2019/04/28 07:17:47;;;;;;;5.3;2;;;;;;;10.12;59.99414;963.9961;;;;
2019/04/28 07:20:35;;;;;;;7.7;2.2;;;;;;;9.97;59.88965;963.9528;;;;
2019/04/28 07:22:37;;;;;;;5.9;2;;;;;;;10.14;59.02539;963.9443;;;;
2019/04/28 07:25:03;;;;;;;5.1;2;;;;;;;10.38;58.33008;963.9303;;;;
2019/04/28 07:27:28;;;;;;;7.1;1.9;;;;;;;10.44;58.04688;964.0539;;;;
2019/04/28 07:29:54;;;;;;;4.1;2;;;;;;;10.59;57.4209;963.9772;;;;
2019/04/28 07:32:19;;;;;;;5.3;1.9;;;;;;;10.59;58.41797;964.0201;;;;
2019/04/28 07:34:44;;;;;;;7.3;2;;;;;;;10.62;57.57715;964.0278;;;;
2019/04/28 07:37:09;;;;;;;7.4;1.9;;;;;;;10.71;58.12988;964.0735;;;;
2019/04/28 07:39:34;;;;;;;7;1.9;;;;;;;10.66;56.97363;964.0435;;;;
2019/04/28 07:41:59;;;;;;;5.2;1.9;;;;;;;10.76;56.91602;963.9916;;;;
2019/04/28 07:44:24;;;;;;;5.9;1.8;;;;;;;11.14;57.42383;963.965;;;;
2019/04/28 07:46:52;;;;;;;4.6;1.8;;;;;;;11.38;57.03418;964.0308;;;;
2019/04/28 07:49:17;;;;;;;6.7;2.1;;;;;;;11.55;54.1416;964.0616;;;;
2019/04/28 07:51:55;;;;;;;5.1;1.7;;;;;;;11.6;52.95117;964.1004;;;;
2019/04/28 07:54:09;;;;;;;6.4;1.8;;;;;;;11.71;51.84766;963.9816;;;;
2019/04/28 07:56:32;;;;;;;3.7;1.6;;;;;;;11.9;52.3291;964.0002;;;;
2019/04/28 07:58:57;;;;;;;7.1;1.9;;;;;;;11.61;51.54102;964.0691;;;;
2019/04/28 08:01:24;;;;;;;4.3;1.8;;;;;;;11.37;53.45117;964.0502;;;;
2019/04/28 08:03:49;;;;;;;5.4;1.8;;;;;;;11.48;52.91211;963.9877;;;;
2019/04/28 08:06:14;;;;;;;4.9;1.9;;;;;;;11.39;53.40625;964.0686;;;;
2019/04/28 08:08:41;;;;;;;6.8;1.8;;;;;;;11.57;52.125;964.0054;;;;
2019/04/28 08:11:06;;;;;;;6.3;1.7;;;;;;;11.63;49.93457;964.0131;;;;
2019/04/28 08:13:31;;;;;;;6;1.9;;;;;;;11.21;49.84082;963.9819;;;;
2019/04/28 08:15:56;;;;;;;4.5;1.6;;;;;;;11.38;51.13867;964.0098;;;;
2019/04/28 08:18:21;;;;;;;5.5;1.7;;;;;;;11.4;50.55371;964.0712;;;;
2019/04/28 08:20:46;;;;;;;4.9;1.8;;;;;;;11.39;51.30371;963.9983;;;;
2019/04/28 08:23:11;;;;;;;5.5;1.9;;;;;;;11.27;50.18652;964.0154;;;;
2019/04/28 08:25:37;;;;;;;7;2;;;;;;;11.31;50.86035;964.0479;;;;
2019/04/28 08:28:02;;;;;;;5;1.9;;;;;;;11.35;50.39551;964.0009;;;;
2019/04/28 08:30:27;;;;;;;5.7;1.8;;;;;;;11.15;50.86523;963.9713;;;;
2019/04/28 08:32:59;;;;;;;6.8;1.9;;;;;;;10.95;52.27148;963.9197;;;;
2019/04/28 08:35:17;;;;;;;4.5;1.8;;;;;;;10.86;52.20313;963.9172;;;;
2019/04/28 08:37:43;;;;;;;6.9;2;;;;;;;10.83;52.16504;963.8652;;;;
2019/04/28 08:40:09;;;;;;;5.3;1.7;;;;;;;10.99;52.44141;963.8259;;;;
2019/04/28 08:42:34;;;;;;;4.5;1.7;;;;;;;10.98;49.97656;963.8494;;;;
2019/04/28 08:44:59;;;;;;;5;1.7;;;;;;;11.09;51.83203;963.9247;;;;
2019/04/28 08:47:25;;;;;;;6.7;1.9;;;;;;;11.26;51.80469;963.9476;;;;
2019/04/28 08:49:51;;;;;;;4.7;1.7;;;;;;;11.43;51.41504;963.9747;;;;
2019/04/28 08:52:16;;;;;;;4;1.4;;;;;;;11.5;50.7998;964.0148;;;;
2019/04/28 08:54:41;;;;;;;5.5;1.8;;;;;;;11.33;50.00488;964.0178;;;;
2019/04/28 08:57:07;;;;;;;4.9;1.6;;;;;;;12.14;49.74609;964.0016;;;;
2019/04/28 08:59:32;;;;;;;4.6;1.6;;;;;;;12.45;48.79395;963.9802;;;;
2019/04/28 09:01:58;;;;;;;5.5;1.7;;;;;;;12.72;46.99805;963.9272;;;;
2019/04/28 09:04:23;;;;;;;5.7;1.7;;;;;;;12.6;46.80664;963.9672;;;;
2019/04/28 09:06:48;;;;;;;4.8;1.5;;;;;;;12.1;47.4248;964.0045;;;;
2019/04/28 09:09:16;;;;;;;9.2;2.8;;;;;;;12.92;44.81641;963.9043;;;;
2019/04/28 09:11:40;;;;;;;4.8;1.4;;;;;;;12.65;46.2002;963.9147;;;;
2019/04/28 09:14:06;;;;;;;4.3;1.5;;;;;;;12.57;45.85059;963.9807;;;;
2019/04/28 09:16:31;;;;;;;4.6;1.5;;;;;;;12.85;45.49023;963.9572;;;;
2019/04/28 09:18:58;;;;;;;4.5;1.4;;;;;;;13.49;45.3584;963.9092;;;;
2019/04/28 09:21:23;;;;;;;4.7;1.4;;;;;;;13.83;40.78809;963.9038;;;;
2019/04/28 09:23:48;;;;;;;5.2;1.4;;;;;;;13.8;41.94238;963.9227;;;;
2019/04/28 09:26:13;;;;;;;4.9;1.3;;;;;;;13.48;42.63184;963.9236;;;;
2019/04/28 09:28:38;;;;;;;4.4;1.5;;;;;;;13.31;41.22363;963.9205;;;;
2019/04/28 09:31:04;;;;;;;3.6;1.4;;;;;;;13.39;41.97363;963.9196;;;;
2019/04/28 09:33:29;;;;;;;4;1.5;;;;;;;13.17;43.07227;964.0475;;;;
2019/04/28 09:35:54;;;;;;;3.4;1.2;;;;;;;13.24;43.1377;964.0128;;;;
2019/04/28 09:38:22;;;;;;;2.9;1.3;;;;;;;13.17;43.4375;964.1128;;;;
2019/04/28 09:40:47;;;;;;;4.1;1.9;;;;;;;12.82;48.16211;964.1848;;;;
2019/04/28 09:43:15;;;;;;;5.9;1.8;;;;;;;11.94;51.27441;964.3419;;;;
2019/04/28 09:45:43;;;;;;;4.1;1.8;;;;;;;12.12;51.02637;964.2355;;;;
2019/04/28 09:48:02;;;;;;;5.1;1.8;;;;;;;12.2;52.64746;964.2726;;;;
2019/04/28 09:50:27;;;;;;;5.6;2.1;;;;;;;12.37;53.04492;964.243;;;;
2019/04/28 09:52:53;;;;;;;6;2.1;;;;;;;12.66;52.92676;964.2736;;;;
2019/04/28 09:55:18;;;;;;;6.1;2.2;;;;;;;12.35;53.1123;964.2117;;;;
2019/04/28 09:57:43;;;;;;;4.2;1.8;;;;;;;11.97;52.88867;964.128;;;;
2019/04/28 10:00:12;;;;;;;4.1;1.9;;;;;;;12.05;53.33398;964.1351;;;;
2019/04/28 10:02:37;;;;;;;6.6;2.1;;;;;;;12.35;51.81738;964.204;;;;
2019/04/28 10:05:02;;;;;;;5.2;2;;;;;;;12.83;52.28809;964.1692;;;;
2019/04/28 10:07:27;;;;;;;7.3;2.1;;;;;;;13.41;50.7168;964.0775;;;;
2019/04/28 10:09:53;;;;;;;4.4;1.9;;;;;;;13.42;49.60938;964.0709;;;;
2019/04/28 10:12:18;;;;;;;5.3;2;;;;;;;13.15;50.66406;964.0801;;;;
2019/04/28 10:14:43;;;;;;;5.7;2.1;;;;;;;12.75;51.43066;964;;;;
2019/04/28 10:17:08;;;;;;;4.8;2;;;;;;;13.45;50.36816;964.0391;;;;
2019/04/28 10:19:33;;;;;;;4;1.9;;;;;;;13.38;49.08594;964.0308;;;;
2019/04/28 10:21:58;;;;;;;4.7;2.4;;;;;;;13.9;48.01172;964.056;;;;
2019/04/28 10:24:23;;;;;;;3.2;1.8;;;;;;;14.31;48.13867;964.0586;;;;
2019/04/28 10:26:49;;;;;;;5.2;2.1;;;;;;;14;47.85645;963.9332;;;;
2019/04/28 10:29:15;;;;;;;4.1;1.6;;;;;;;14.13;48.54492;963.9483;;;;
2019/04/28 10:31:40;;;;;;;3.2;1.6;;;;;;;14.44;46.56836;963.9246;;;;
2019/04/28 10:34:07;;;;;;;5.9;1.9;;;;;;;14.2;46.49609;963.8647;;;;
2019/04/28 10:36:34;;;;;;;3.7;1.8;;;;;;;14.13;46.61816;963.8644;;;;
2019/04/28 10:39:17;;;;;;;4.5;2;;;;;;;13.89;47.46582;963.7056;;;;
2019/04/28 10:41:32;;;;;;;5.3;2;;;;;;;14.47;45.43652;963.7145;;;;
2019/04/28 10:43:48;;;;;;;4.8;1.7;;;;;;;14.25;44.29004;963.6861;;;;
2019/04/28 10:46:13;;;;;;;5.3;1.7;;;;;;;14.69;43.06934;963.6375;;;;
2019/04/28 10:48:38;;;;;;;3.7;1.6;;;;;;;14.96;41.58008;963.5949;;;;
2019/04/28 10:51:03;;;;;;;5;1.8;;;;;;;14.96;43.32031;963.6526;;;;
2019/04/28 10:53:28;;;;;;;4.2;1.7;;;;;;;15.12;40.87305;963.6655;;;;
2019/04/28 10:55:53;;;;;;;5;1.6;;;;;;;15.26;41.05176;963.574;;;;
2019/04/28 10:58:18;;;;;;;5.1;1.9;;;;;;;15.33;41.35547;963.6155;;;;
2019/04/28 11:00:44;;;;;;;5.8;1.6;;;;;;;15.24;42.43652;963.6083;;;;
2019/04/28 11:03:09;;;;;;;4.1;1.7;;;;;;;15.33;39.93359;963.5894;;;;
2019/04/28 11:05:38;;;;;;;4.8;1.6;;;;;;;14.81;38.91602;963.4835;;;;
2019/04/28 11:07:59;;;;;;;5.8;1.6;;;;;;;14.64;39.21973;963.459;;;;
2019/04/28 11:10:24;;;;;;;4.4;1.6;;;;;;;14.11;40.82617;963.4408;;;;
2019/04/28 11:12:49;;;;;;;5.2;1.8;;;;;;;14.29;40.67773;963.3856;;;;
2019/04/28 11:15:25;;;;;;;3.6;1.6;;;;;;;14.25;39.17188;963.3495;;;;
2019/04/28 11:17:39;;;;;;;4.4;1.8;;;;;;;14.13;39.2207;963.3723;;;;
2019/04/28 11:20:04;;;;;;;3.5;1.8;;;;;;;14;40.54395;963.2434;;;;
2019/04/28 11:22:29;;;;;;;3.4;1.6;;;;;;;13.59;41.39063;963.3864;;;;
2019/04/28 11:24:55;;;;;;;4.2;1.7;;;;;;;13.96;41.03711;963.2728;;;;
2019/04/28 11:27:20;;;;;;;3.5;1.8;;;;;;;14.05;43.44238;963.2703;;;;
2019/04/28 11:29:45;;;;;;;5.1;1.8;;;;;;;14.35;42.46875;963.2136;;;;
2019/04/28 11:32:10;;;;;;;5.6;1.9;;;;;;;14.82;40.69141;963.2068;;;;
2019/04/28 11:34:44;;;;;;;5.8;1.9;;;;;;;14.38;40.86328;963.1764;;;;
2019/04/28 11:37:02;;;;;;;3.8;1.7;;;;;;;14.15;40.5;963.2019;;;;
2019/04/28 11:39:30;;;;;;;5.1;2;;;;;;;14.35;40.96582;963.105;;;;
2019/04/28 11:43:51;;;;;;;4.2;1.4;;;;;;;14.49;40.68457;963.2087;;;;
2019/04/28 11:46:18;;;;;;;3.8;1.6;;;;;;;14.47;39.30957;963.108;;;;
2019/04/28 11:48:41;;;;;;;3.6;1.5;;;;;;;14.57;37.62891;963.1406;;;;
2019/04/28 11:51:06;;;;;;;5.2;1.6;;;;;;;14.66;36.59473;963.1323;;;;
2019/04/28 11:53:31;;;;;;;5.4;1.7;;;;;;;14.43;36.85938;963.1623;;;;
2019/04/28 11:55:58;;;;;;;4;1.6;;;;;;;14.41;39.44727;963.1667;;;;
2019/04/28 11:58:23;;;;;;;4.6;1.6;;;;;;;14.63;38.92285;963.1735;;;;
2019/04/28 12:00:49;;;;;;;5.6;1.5;;;;;;;14.35;39.2168;963.1387;;;;
2019/04/28 12:03:14;;;;;;;3.4;1.6;;;;;;;14.52;38.04883;963.1728;;;;
2019/04/28 12:05:41;;;;;;;3.7;1.4;;;;;;;14.55;37.37695;963.1277;;;;
2019/04/28 12:08:07;;;;;;;3.3;1.5;;;;;;;14.54;38.79688;963.0544;;;;
2019/04/28 12:10:35;;;;;;;4.9;1.6;;;;;;;14.54;37.38867;963.1085;;;;
2019/04/28 12:13:08;;;;;;;4.2;1.4;;;;;;;14.07;39.16699;963.0919;;;;
2019/04/28 12:20:20;;;;;;;5.4;1.7;;;;;;;13.72;40.3877;963.1085;;;;
2019/04/28 12:22:37;;;;;;;3.7;1.4;;;;;;;13.84;40.18555;963.1083;;;;
2019/04/28 12:25:02;;;;;;;4;1.5;;;;;;;13.88;40.4502;963.1312;;;;
2019/04/28 12:27:27;;;;;;;3.6;1.4;;;;;;;13.74;41.51172;963.1306;;;;
2019/04/28 12:29:52;;;;;;;5;1.4;;;;;;;13.66;41.82324;963.1369;;;;
2019/04/28 12:32:18;;;;;;;4.3;1.6;;;;;;;13.7;42.90039;963.1861;;;;
2019/04/28 12:34:45;;;;;;;3.4;1.6;;;;;;;13.26;41.39453;963.1679;;;;
2019/04/28 12:37:10;;;;;;;3.3;1.5;;;;;;;13.1;41.69727;963.1713;;;;
2019/04/28 12:39:35;;;;;;;4.2;1.7;;;;;;;13.26;40.75781;963.1013;;;;
2019/04/28 12:42:01;;;;;;;4.2;1.4;;;;;;;13.54;41.19727;963.1031;;;;
2019/04/28 12:44:26;;;;;;;3.8;1.7;;;;;;;13.79;42.74414;963.0435;;;;
2019/04/28 12:46:51;;;;;;;4;1.8;;;;;;;13.65;43.69922;963.0075;;;;
2019/04/28 12:49:53;;;;;;;4.5;1.6;;;;;;;13.92;43.19336;963.0064;;;;
2019/04/28 12:51:41;;;;;;;2.6;1.4;;;;;;;14.14;41.53711;962.9258;;;;
2019/04/28 12:54:08;;;;;;;8.5;1.4;;;;;;;13.79;40.64258;963.0081;;;;
2019/04/28 12:56:31;;;;;;;4.5;1.5;;;;;;;13.69;40.33789;962.9127;;;;
2019/04/28 12:59:02;;;;;;;4.7;1.5;;;;;;;14.26;39.70508;962.886;;;;
2019/04/28 13:01:29;;;;;;;2.2;1.2;;;;;;;14.31;38.72852;962.9154;;;;
2019/04/28 13:07:43;;;;;;;3.2;1.4;;;;;;;14.79;39.12598;962.8326;;;;
2019/04/28 13:10:09;;;;;;;3.9;1.5;;;;;;;14.97;38.76367;962.7978;;;;
2019/04/28 13:12:34;;;;;;;3.7;1.5;;;;;;;14.98;39.38086;962.8619;;;;
2019/04/28 13:14:59;;;;;;;3.9;1.6;;;;;;;15.18;38.02344;962.8936;;;;
2019/04/28 13:17:24;;;;;;;2.9;1.5;;;;;;;15.28;37.12012;962.8089;;;;
2019/04/28 13:19:49;;;;;;;3.9;1.4;;;;;;;15.44;38.5918;962.8516;;;;
2019/04/28 13:22:16;;;;;;;2.6;1.3;;;;;;;15.15;36.17383;962.8691;;;;
2019/04/28 13:24:41;;;;;;;2.7;1.5;;;;;;;15.29;35.93652;962.7798;;;;
2019/04/28 13:27:08;;;;;;;4.2;1.3;;;;;;;15.23;35.94336;962.7126;;;;
2019/04/28 13:29:33;;;;;;;2.7;1.2;;;;;;;15.37;36.10938;962.7087;;;;
2019/04/28 13:31:59;;;;;;;3.1;1.3;;;;;;;15.33;35.95117;962.7725;;;;
2019/04/28 13:34:25;;;;;;;3.3;1.2;;;;;;;15.6;35.51074;962.6855;;;;
2019/04/28 13:36:49;;;;;;;2.9;1.5;;;;;;;15.31;36.19922;962.6665;;;;
2019/04/28 13:39:33;;;;;;;3.4;1.5;;;;;;;15.23;35.84863;962.6393;;;;
2019/04/28 13:41:43;;;;;;;2.7;1.3;;;;;;;15.17;36.13965;962.7206;;;;
2019/04/28 13:44:11;;;;;;;2.8;1.3;;;;;;;15.52;35.71777;962.6758;;;;
2019/04/28 13:46:34;;;;;;;2.7;1.3;;;;;;;15.43;36.23242;962.6168;;;;
2019/04/28 13:48:59;;;;;;;2.5;1.2;;;;;;;15.34;36.05859;962.5347;;;;
2019/04/28 13:51:24;;;;;;;3.6;1.5;;;;;;;15.77;35.14551;962.5914;;;;
2019/04/28 13:53:49;;;;;;;2.8;1.3;;;;;;;16.02;34.10938;962.4844;;;;
2019/04/28 13:56:15;;;;;;;3.6;1.4;;;;;;;15.92;34.56445;962.4698;;;;
2019/04/28 13:58:44;;;;;;;3.2;1.5;;;;;;;15.8;34.28125;962.5067;;;;
2019/04/28 14:03:41;;;;;;;2.7;1.5;;;;;;;16.02;33.86035;962.4542;;;;
2019/04/28 14:06:00;;;;;;;3.9;1.5;;;;;;;15.79;34.83887;962.407;;;;
2019/04/28 14:08:22;;;;;;;3.1;1.6;;;;;;;15.82;35.66016;962.4534;;;;
2019/04/28 14:10:47;;;;;;;2.7;1.7;;;;;;;15.84;34.9375;962.4113;;;;
2019/04/28 14:13:12;;;;;;;3.6;1.6;;;;;;;15.92;34.08984;962.3948;;;;
2019/04/28 14:15:37;;;;;;;2.7;1.6;;;;;;;16.06;34.36133;962.473;;;;
2019/04/28 14:18:06;;;;;;;3.8;1.5;;;;;;;16.23;34.89746;962.4125;;;;
2019/04/28 14:20:31;;;;;;;3.2;1.6;;;;;;;16.05;33.93262;962.4144;;;;
2019/04/28 14:22:56;;;;;;;3.4;1.5;;;;;;;16.04;34.32422;962.4066;;;;
2019/04/28 14:25:21;;;;;;;3.7;1.6;;;;;;;15.49;34.88574;962.4358;;;;
2019/04/28 14:27:46;;;;;;;3.9;1.5;;;;;;;15.49;36.01172;962.3964;;;;
2019/04/28 14:30:11;;;;;;;3.9;1.7;;;;;;;15.57;36.89551;962.3989;;;;
2019/04/28 14:32:38;;;;;;;3.4;1.5;;;;;;;15.39;37.49805;962.4366;;;;
2019/04/28 14:35:03;;;;;;;4.9;1.8;;;;;;;15.05;37.74121;962.4239;;;;
2019/04/28 14:37:28;;;;;;;4.3;1.5;;;;;;;15.26;35.69629;962.3973;;;;
2019/04/28 14:39:53;;;;;;;3.1;1.5;;;;;;;15.36;35.45605;962.4046;;;;
2019/04/28 14:42:18;;;;;;;4;1.6;;;;;;;15.42;36.9541;962.3965;;;;
2019/04/28 14:44:45;;;;;;;2.6;1.5;;;;;;;15.51;35.54004;962.3663;;;;
2019/04/28 14:47:10;;;;;;;2.9;1.5;;;;;;;15.54;36.3125;962.4559;;;;